sensor_id;sensor_type;location;lat;lon;timestamp;temperature;humidity
40177;DHT22;31511;46.176;9.874;2023-02-28T00:02:14;5.30;99.90
40177;DHT22;31511;46.176;9.874;2023-02-28T00:05:01;5.20;99.90
40177;DHT22;31511;46.176;9.874;2023-02-28T00:07:47;5.20;99.90
40177;DHT22;31511;46.176;9.874;2023-02-28T00:10:31;5.00;99.90
40177;DHT22;31511;46.176;9.874;2023-02-28T00:13:15;5.10;99.90
40177;DHT22;31511;46.176;9.874;2023-02-28T00:16:08;5.20;99.90
40177;DHT22;31511;46.176;9.874;2023-02-28T00:18:53;5.20;99.90
40177;DHT22;31511;46.176;9.874;2023-02-28T00:21:37;5.10;99.90
40177;DHT22;31511;46.176;9.874;2023-02-28T00:24:25;5.20;99.90
40177;DHT22;31511;46.176;9.874;2023-02-28T00:27:11;5.10;99.90
40177;DHT22;31511;46.176;9.874;2023-02-28T00:29:56;5.00;99.90
40177;DHT22;31511;46.176;9.874;2023-02-28T00:32:40;5.00;99.90
40177;DHT22;31511;46.176;9.874;2023-02-28T00:35:26;5.00;99.90
40177;DHT22;31511;46.176;9.874;2023-02-28T00:38:12;5.10;99.90
40177;DHT22;31511;46.176;9.874;2023-02-28T00:40:57;5.20;99.90
40177;DHT22;31511;46.176;9.874;2023-02-28T00:43:42;5.30;99.90
40177;DHT22;31511;46.176;9.874;2023-02-28T00:46:28;5.20;99.90
40177;DHT22;31511;46.176;9.874;2023-02-28T00:49:13;5.30;99.90
40177;DHT22;31511;46.176;9.874;2023-02-28T00:51:58;5.20;99.90
40177;DHT22;31511;46.176;9.874;2023-02-28T00:54:42;5.10;99.90
40177;DHT22;31511;46.176;9.874;2023-02-28T00:57:27;5.10;99.90
40177;DHT22;31511;46.176;9.874;2023-02-28T01:00:13;5.10;99.90
40177;DHT22;31511;46.176;9.874;2023-02-28T01:02:57;5.20;99.90
40177;DHT22;31511;46.176;9.874;2023-02-28T01:05:41;5.00;99.90
40177;DHT22;31511;46.176;9.874;2023-02-28T01:08:27;5.00;99.90
40177;DHT22;31511;46.176;9.874;2023-02-28T01:11:13;5.10;99.90
40177;DHT22;31511;46.176;9.874;2023-02-28T01:13:58;5.10;99.90
40177;DHT22;31511;46.176;9.874;2023-02-28T01:16:43;5.00;99.90
40177;DHT22;31511;46.176;9.874;2023-02-28T01:19:28;5.00;99.90
40177;DHT22;31511;46.176;9.874;2023-02-28T01:22:12;4.90;99.90
40177;DHT22;31511;46.176;9.874;2023-02-28T01:24:57;4.80;99.90
40177;DHT22;31511;46.176;9.874;2023-02-28T01:27:42;5.00;99.90
40177;DHT22;31511;46.176;9.874;2023-02-28T01:30:26;5.00;99.90
40177;DHT22;31511;46.176;9.874;2023-02-28T01:33:10;5.00;99.90
40177;DHT22;31511;46.176;9.874;2023-02-28T01:35:59;4.80;99.90
40177;DHT22;31511;46.176;9.874;2023-02-28T01:38:43;4.90;99.90
40177;DHT22;31511;46.176;9.874;2023-02-28T01:41:30;4.80;99.90
40177;DHT22;31511;46.176;9.874;2023-02-28T01:47:18;4.70;99.90
40177;DHT22;31511;46.176;9.874;2023-02-28T01:50:04;4.90;99.90
40177;DHT22;31511;46.176;9.874;2023-02-28T01:52:49;4.70;99.90
40177;DHT22;31511;46.176;9.874;2023-02-28T01:55:34;4.60;99.90
40177;DHT22;31511;46.176;9.874;2023-02-28T01:58:19;4.50;99.90
40177;DHT22;31511;46.176;9.874;2023-02-28T02:01:04;4.40;99.90
40177;DHT22;31511;46.176;9.874;2023-02-28T02:03:49;4.50;99.90
40177;DHT22;31511;46.176;9.874;2023-02-28T02:06:40;4.20;99.90
40177;DHT22;31511;46.176;9.874;2023-02-28T02:09:27;4.20;99.90
40177;DHT22;31511;46.176;9.874;2023-02-28T02:15:16;4.10;99.90
40177;DHT22;31511;46.176;9.874;2023-02-28T02:18:09;4.10;99.90
40177;DHT22;31511;46.176;9.874;2023-02-28T02:26:55;4.20;99.90
40177;DHT22;31511;46.176;9.874;2023-02-28T02:29:47;4.00;99.90
40177;DHT22;31511;46.176;9.874;2023-02-28T02:35:25;3.90;99.90
40177;DHT22;31511;46.176;9.874;2023-02-28T02:38:15;3.90;99.90
40177;DHT22;31511;46.176;9.874;2023-02-28T02:47:04;3.80;99.90
40177;DHT22;31511;46.176;9.874;2023-02-28T02:49:51;3.90;99.90
40177;DHT22;31511;46.176;9.874;2023-02-28T02:52:41;4.00;99.90
40177;DHT22;31511;46.176;9.874;2023-02-28T02:55:27;4.10;99.90
40177;DHT22;31511;46.176;9.874;2023-02-28T02:58:14;4.10;99.90
40177;DHT22;31511;46.176;9.874;2023-02-28T03:01:00;4.20;99.90
40177;DHT22;31511;46.176;9.874;2023-02-28T03:03:45;3.90;99.90
40177;DHT22;31511;46.176;9.874;2023-02-28T03:06:30;3.90;99.90
40177;DHT22;31511;46.176;9.874;2023-02-28T03:09:14;3.90;99.90
40177;DHT22;31511;46.176;9.874;2023-02-28T03:11:59;4.00;99.90
40177;DHT22;31511;46.176;9.874;2023-02-28T03:20:27;4.00;99.90
40177;DHT22;31511;46.176;9.874;2023-02-28T03:23:22;4.00;99.90
40177;DHT22;31511;46.176;9.874;2023-02-28T03:26:21;4.10;99.90
40177;DHT22;31511;46.176;9.874;2023-02-28T03:32:02;4.10;99.90
40177;DHT22;31511;46.176;9.874;2023-02-28T03:41:15;4.00;99.90
40177;DHT22;31511;46.176;9.874;2023-02-28T03:44:07;4.10;99.90
40177;DHT22;31511;46.176;9.874;2023-02-28T03:47:07;4.10;99.90
40177;DHT22;31511;46.176;9.874;2023-02-28T03:52:44;4.20;99.90
40177;DHT22;31511;46.176;9.874;2023-02-28T03:55:30;4.10;99.90
40177;DHT22;31511;46.176;9.874;2023-02-28T03:58:37;4.20;99.90
40177;DHT22;31511;46.176;9.874;2023-02-28T04:01:33;4.10;99.90
40177;DHT22;31511;46.176;9.874;2023-02-28T04:04:19;4.00;99.90
40177;DHT22;31511;46.176;9.874;2023-02-28T04:07:06;4.00;99.90
40177;DHT22;31511;46.176;9.874;2023-02-28T04:09:51;4.10;99.90
40177;DHT22;31511;46.176;9.874;2023-02-28T04:12:35;4.00;99.90
40177;DHT22;31511;46.176;9.874;2023-02-28T04:15:21;4.10;99.90
40177;DHT22;31511;46.176;9.874;2023-02-28T04:18:07;4.10;99.90
40177;DHT22;31511;46.176;9.874;2023-02-28T04:20:52;4.10;99.90
40177;DHT22;31511;46.176;9.874;2023-02-28T04:23:37;4.20;99.90
40177;DHT22;31511;46.176;9.874;2023-02-28T04:26:23;4.20;99.90
40177;DHT22;31511;46.176;9.874;2023-02-28T04:29:08;4.10;99.90
40177;DHT22;31511;46.176;9.874;2023-02-28T04:31:54;4.10;99.90
40177;DHT22;31511;46.176;9.874;2023-02-28T04:34:38;4.20;99.90
40177;DHT22;31511;46.176;9.874;2023-02-28T04:37:24;4.20;99.90
40177;DHT22;31511;46.176;9.874;2023-02-28T04:40:13;4.00;99.90
40177;DHT22;31511;46.176;9.874;2023-02-28T04:42:57;4.00;99.90
40177;DHT22;31511;46.176;9.874;2023-02-28T04:45:42;4.00;99.90
40177;DHT22;31511;46.176;9.874;2023-02-28T04:48:28;4.10;99.90
40177;DHT22;31511;46.176;9.874;2023-02-28T04:51:15;4.30;99.90
40177;DHT22;31511;46.176;9.874;2023-02-28T04:53:59;4.30;99.90
40177;DHT22;31511;46.176;9.874;2023-02-28T04:56:44;4.20;99.90
40177;DHT22;31511;46.176;9.874;2023-02-28T04:59:29;4.40;99.90
40177;DHT22;31511;46.176;9.874;2023-02-28T05:02:14;4.40;99.90
40177;DHT22;31511;46.176;9.874;2023-02-28T05:04:59;4.20;99.90
40177;DHT22;31511;46.176;9.874;2023-02-28T05:07:44;4.00;99.90
40177;DHT22;31511;46.176;9.874;2023-02-28T05:10:29;4.00;99.90
40177;DHT22;31511;46.176;9.874;2023-02-28T05:13:14;4.20;99.90
40177;DHT22;31511;46.176;9.874;2023-02-28T05:15:59;4.30;99.90
40177;DHT22;31511;46.176;9.874;2023-02-28T05:18:43;4.10;99.90
40177;DHT22;31511;46.176;9.874;2023-02-28T05:24:15;4.00;99.90
40177;DHT22;31511;46.176;9.874;2023-02-28T05:27:06;4.10;99.90
40177;DHT22;31511;46.176;9.874;2023-02-28T05:29:50;4.10;99.90
40177;DHT22;31511;46.176;9.874;2023-02-28T05:32:34;4.10;99.90
40177;DHT22;31511;46.176;9.874;2023-02-28T05:35:20;4.10;99.90
40177;DHT22;31511;46.176;9.874;2023-02-28T05:38:05;4.10;99.90
40177;DHT22;31511;46.176;9.874;2023-02-28T05:40:49;4.20;99.90
40177;DHT22;31511;46.176;9.874;2023-02-28T05:43:33;4.30;99.90
40177;DHT22;31511;46.176;9.874;2023-02-28T05:46:17;4.30;99.90
40177;DHT22;31511;46.176;9.874;2023-02-28T05:49:02;4.20;99.90
40177;DHT22;31511;46.176;9.874;2023-02-28T05:51:46;4.20;99.90
40177;DHT22;31511;46.176;9.874;2023-02-28T05:54:30;4.20;99.90
40177;DHT22;31511;46.176;9.874;2023-02-28T05:57:15;4.20;99.90
40177;DHT22;31511;46.176;9.874;2023-02-28T05:59:59;4.10;99.90
40177;DHT22;31511;46.176;9.874;2023-02-28T06:02:43;4.10;99.90
40177;DHT22;31511;46.176;9.874;2023-02-28T06:05:28;4.20;99.90
40177;DHT22;31511;46.176;9.874;2023-02-28T06:08:13;4.40;99.90
40177;DHT22;31511;46.176;9.874;2023-02-28T06:11:02;4.20;99.90
40177;DHT22;31511;46.176;9.874;2023-02-28T06:13:46;4.10;99.90
40177;DHT22;31511;46.176;9.874;2023-02-28T06:16:31;4.20;99.90
40177;DHT22;31511;46.176;9.874;2023-02-28T06:19:16;4.20;99.90
40177;DHT22;31511;46.176;9.874;2023-02-28T06:22:01;4.30;99.90
40177;DHT22;31511;46.176;9.874;2023-02-28T06:24:45;4.30;99.90
40177;DHT22;31511;46.176;9.874;2023-02-28T06:27:30;4.30;99.90
40177;DHT22;31511;46.176;9.874;2023-02-28T06:30:14;4.30;99.90
40177;DHT22;31511;46.176;9.874;2023-02-28T06:32:58;4.20;99.90
40177;DHT22;31511;46.176;9.874;2023-02-28T06:35:52;4.20;99.90
40177;DHT22;31511;46.176;9.874;2023-02-28T06:38:36;4.30;99.90
40177;DHT22;31511;46.176;9.874;2023-02-28T06:41:23;4.30;99.90
40177;DHT22;31511;46.176;9.874;2023-02-28T06:44:13;4.20;99.90
40177;DHT22;31511;46.176;9.874;2023-02-28T06:46:58;4.20;99.90
40177;DHT22;31511;46.176;9.874;2023-02-28T06:49:42;4.20;99.90
40177;DHT22;31511;46.176;9.874;2023-02-28T06:52:30;4.30;99.90
40177;DHT22;31511;46.176;9.874;2023-02-28T06:55:14;4.30;99.90
40177;DHT22;31511;46.176;9.874;2023-02-28T06:57:59;4.20;99.90
40177;DHT22;31511;46.176;9.874;2023-02-28T07:00:44;4.40;99.90
40177;DHT22;31511;46.176;9.874;2023-02-28T07:03:29;4.40;99.90
40177;DHT22;31511;46.176;9.874;2023-02-28T07:06:14;4.50;99.90
40177;DHT22;31511;46.176;9.874;2023-02-28T07:09:01;4.50;99.90
40177;DHT22;31511;46.176;9.874;2023-02-28T07:11:46;4.60;99.90
40177;DHT22;31511;46.176;9.874;2023-02-28T07:14:30;4.60;99.90
40177;DHT22;31511;46.176;9.874;2023-02-28T07:17:14;4.70;99.90
40177;DHT22;31511;46.176;9.874;2023-02-28T07:19:59;4.60;99.90
40177;DHT22;31511;46.176;9.874;2023-02-28T07:22:44;4.80;99.90
40177;DHT22;31511;46.176;9.874;2023-02-28T07:25:29;4.80;99.90
40177;DHT22;31511;46.176;9.874;2023-02-28T07:28:14;4.80;99.90
40177;DHT22;31511;46.176;9.874;2023-02-28T07:31:03;4.90;99.90
40177;DHT22;31511;46.176;9.874;2023-02-28T07:33:48;4.70;99.90
40177;DHT22;31511;46.176;9.874;2023-02-28T07:36:32;4.80;99.90
40177;DHT22;31511;46.176;9.874;2023-02-28T07:39:17;4.80;99.90
40177;DHT22;31511;46.176;9.874;2023-02-28T07:42:04;5.00;99.90
40177;DHT22;31511;46.176;9.874;2023-02-28T07:44:48;5.20;99.90
40177;DHT22;31511;46.176;9.874;2023-02-28T07:47:32;5.30;99.90
40177;DHT22;31511;46.176;9.874;2023-02-28T07:50:17;5.20;99.90
40177;DHT22;31511;46.176;9.874;2023-02-28T07:53:02;5.30;99.90
40177;DHT22;31511;46.176;9.874;2023-02-28T07:55:47;5.50;99.90
40177;DHT22;31511;46.176;9.874;2023-02-28T10:27:22;5.60;99.90
40177;DHT22;31511;46.176;9.874;2023-02-28T10:30:11;12.50;99.90
40177;DHT22;31511;46.176;9.874;2023-02-28T10:32:57;15.60;99.90
40177;DHT22;31511;46.176;9.874;2023-02-28T10:35:41;18.50;99.90
40177;DHT22;31511;46.176;9.874;2023-02-28T10:38:38;19.70;99.90
40177;DHT22;31511;46.176;9.874;2023-02-28T10:41:30;18.30;99.90
40177;DHT22;31511;46.176;9.874;2023-02-28T10:44:20;18.40;99.90
40177;DHT22;31511;46.176;9.874;2023-02-28T10:47:08;16.40;99.90
40177;DHT22;31511;46.176;9.874;2023-02-28T10:50:00;14.20;99.90
40177;DHT22;31511;46.176;9.874;2023-02-28T10:52:45;12.90;99.90
40177;DHT22;31511;46.176;9.874;2023-02-28T10:55:30;13.20;99.90
40177;DHT22;31511;46.176;9.874;2023-02-28T10:58:23;14.00;99.90
40177;DHT22;31511;46.176;9.874;2023-02-28T11:01:13;14.20;99.90
40177;DHT22;31511;46.176;9.874;2023-02-28T11:04:01;13.20;99.90
40177;DHT22;31511;46.176;9.874;2023-02-28T11:06:46;14.40;99.90
40177;DHT22;31511;46.176;9.874;2023-02-28T11:09:31;18.40;99.90
40177;DHT22;31511;46.176;9.874;2023-02-28T11:12:22;19.20;99.90
40177;DHT22;31511;46.176;9.874;2023-02-28T11:15:21;22.10;99.90
40177;DHT22;31511;46.176;9.874;2023-02-28T11:20:57;23.60;99.90
40177;DHT22;31511;46.176;9.874;2023-02-28T11:23:42;17.30;99.90
40177;DHT22;31511;46.176;9.874;2023-02-28T11:26:37;17.60;99.90
40177;DHT22;31511;46.176;9.874;2023-02-28T11:29:24;16.70;99.90
40177;DHT22;31511;46.176;9.874;2023-02-28T11:32:18;16.00;99.90
40177;DHT22;31511;46.176;9.874;2023-02-28T11:37:54;17.90;99.90
40177;DHT22;31511;46.176;9.874;2023-02-28T11:49:46;13.90;99.90
40177;DHT22;31511;46.176;9.874;2023-02-28T12:01:03;14.00;99.90
40177;DHT22;31511;46.176;9.874;2023-02-28T12:06:43;16.60;99.90
40177;DHT22;31511;46.176;9.874;2023-02-28T12:12:33;16.90;99.90
40177;DHT22;31511;46.176;9.874;2023-02-28T12:15:25;19.60;99.90
40177;DHT22;31511;46.176;9.874;2023-02-28T12:27:10;21.40;99.90
40177;DHT22;31511;46.176;9.874;2023-02-28T12:32:56;23.30;99.90
40177;DHT22;31511;46.176;9.874;2023-02-28T12:35:53;24.20;99.90
40177;DHT22;31511;46.176;9.874;2023-02-28T12:38:50;23.10;99.90
40177;DHT22;31511;46.176;9.874;2023-02-28T12:41:45;22.60;99.90
40177;DHT22;31511;46.176;9.874;2023-02-28T12:47:24;24.30;99.90
40177;DHT22;31511;46.176;9.874;2023-02-28T12:50:10;22.20;99.90
40177;DHT22;31511;46.176;9.874;2023-02-28T12:52:59;21.10;99.90
40177;DHT22;31511;46.176;9.874;2023-02-28T12:55:49;21.10;99.90
40177;DHT22;31511;46.176;9.874;2023-02-28T12:58:54;22.00;99.90
40177;DHT22;31511;46.176;9.874;2023-02-28T13:01:50;22.90;99.90
40177;DHT22;31511;46.176;9.874;2023-02-28T13:13:25;22.20;99.90
40177;DHT22;31511;46.176;9.874;2023-02-28T13:16:13;23.10;99.90
40177;DHT22;31511;46.176;9.874;2023-02-28T13:19:08;22.60;99.90
40177;DHT22;31511;46.176;9.874;2023-02-28T13:21:54;19.90;99.90
40177;DHT22;31511;46.176;9.874;2023-02-28T13:27:33;16.70;99.90
40177;DHT22;31511;46.176;9.874;2023-02-28T13:36:31;16.00;99.90
40177;DHT22;31511;46.176;9.874;2023-02-28T13:48:04;14.00;99.90
40177;DHT22;31511;46.176;9.874;2023-02-28T13:50:48;14.80;99.90
40177;DHT22;31511;46.176;9.874;2023-02-28T13:53:36;15.00;99.90
40177;DHT22;31511;46.176;9.874;2023-02-28T13:57:01;14.70;99.90
40177;DHT22;31511;46.176;9.874;2023-02-28T14:05:40;15.40;99.90
40177;DHT22;31511;46.176;9.874;2023-02-28T14:08:26;13.80;99.90
40177;DHT22;31511;46.176;9.874;2023-02-28T14:11:23;14.50;99.90
40177;DHT22;31511;46.176;9.874;2023-02-28T14:17:16;14.20;99.90
40177;DHT22;31511;46.176;9.874;2023-02-28T14:20:01;15.50;99.90
40177;DHT22;31511;46.176;9.874;2023-02-28T14:31:34;17.20;99.90
40177;DHT22;31511;46.176;9.874;2023-02-28T14:37:23;17.10;99.90
40177;DHT22;31511;46.176;9.874;2023-02-28T14:40:12;16.80;99.90
40177;DHT22;31511;46.176;9.874;2023-02-28T14:43:00;17.00;99.90
40177;DHT22;31511;46.176;9.874;2023-02-28T14:45:48;16.10;99.90
40177;DHT22;31511;46.176;9.874;2023-02-28T14:48:33;17.30;99.90
40177;DHT22;31511;46.176;9.874;2023-02-28T14:51:22;16.40;99.90
40177;DHT22;31511;46.176;9.874;2023-02-28T14:54:12;16.90;99.90
40177;DHT22;31511;46.176;9.874;2023-02-28T14:56:58;16.40;99.90
40177;DHT22;31511;46.176;9.874;2023-02-28T14:59:42;16.30;99.90
40177;DHT22;31511;46.176;9.874;2023-02-28T15:02:31;15.30;99.90
40177;DHT22;31511;46.176;9.874;2023-02-28T15:08:12;13.70;99.90
40177;DHT22;31511;46.176;9.874;2023-02-28T15:10:58;12.40;99.90
40177;DHT22;31511;46.176;9.874;2023-02-28T15:13:54;12.70;99.90
40177;DHT22;31511;46.176;9.874;2023-02-28T15:16:42;12.60;99.90
40177;DHT22;31511;46.176;9.874;2023-02-28T15:19:31;12.90;99.90
40177;DHT22;31511;46.176;9.874;2023-02-28T15:22:18;12.50;99.90
40177;DHT22;31511;46.176;9.874;2023-02-28T15:25:05;12.80;99.90
40177;DHT22;31511;46.176;9.874;2023-02-28T15:27:53;12.90;99.90
40177;DHT22;31511;46.176;9.874;2023-02-28T15:30:38;12.40;99.90
40177;DHT22;31511;46.176;9.874;2023-02-28T15:33:24;12.40;99.90
40177;DHT22;31511;46.176;9.874;2023-02-28T15:36:15;12.20;99.90
40177;DHT22;31511;46.176;9.874;2023-02-28T15:39:01;12.00;99.90
40177;DHT22;31511;46.176;9.874;2023-02-28T15:41:45;11.70;99.90
40177;DHT22;31511;46.176;9.874;2023-02-28T15:44:33;11.90;99.90
40177;DHT22;31511;46.176;9.874;2023-02-28T15:47:26;12.20;99.90
40177;DHT22;31511;46.176;9.874;2023-02-28T15:50:12;11.90;99.90
40177;DHT22;31511;46.176;9.874;2023-02-28T15:52:58;11.90;99.90
40177;DHT22;31511;46.176;9.874;2023-02-28T15:55:44;11.30;99.90
40177;DHT22;31511;46.176;9.874;2023-02-28T15:58:30;10.90;99.90
40177;DHT22;31511;46.176;9.874;2023-02-28T16:01:20;10.60;99.90
40177;DHT22;31511;46.176;9.874;2023-02-28T16:04:16;10.50;99.90
40177;DHT22;31511;46.176;9.874;2023-02-28T16:07:02;10.30;99.90
40177;DHT22;31511;46.176;9.874;2023-02-28T16:09:46;10.10;99.90
40177;DHT22;31511;46.176;9.874;2023-02-28T16:12:33;9.90;99.90
40177;DHT22;31511;46.176;9.874;2023-02-28T16:15:19;9.90;99.90
40177;DHT22;31511;46.176;9.874;2023-02-28T16:18:07;10.10;99.90
40177;DHT22;31511;46.176;9.874;2023-02-28T16:20:52;10.40;99.90
40177;DHT22;31511;46.176;9.874;2023-02-28T16:23:36;9.70;99.90
40177;DHT22;31511;46.176;9.874;2023-02-28T16:26:22;9.60;99.90
40177;DHT22;31511;46.176;9.874;2023-02-28T16:29:12;9.50;99.90
40177;DHT22;31511;46.176;9.874;2023-02-28T16:31:58;9.40;99.90
40177;DHT22;31511;46.176;9.874;2023-02-28T16:34:43;9.10;99.90
40177;DHT22;31511;46.176;9.874;2023-02-28T16:37:29;9.00;99.90
40177;DHT22;31511;46.176;9.874;2023-02-28T16:40:19;8.90;99.90
40177;DHT22;31511;46.176;9.874;2023-02-28T16:43:05;8.60;99.90
40177;DHT22;31511;46.176;9.874;2023-02-28T16:45:54;8.70;99.90
40177;DHT22;31511;46.176;9.874;2023-02-28T16:48:39;8.70;99.90
40177;DHT22;31511;46.176;9.874;2023-02-28T16:51:25;8.70;99.90
40177;DHT22;31511;46.176;9.874;2023-02-28T16:54:11;8.80;99.90
40177;DHT22;31511;46.176;9.874;2023-02-28T16:56:56;8.60;99.90
40177;DHT22;31511;46.176;9.874;2023-02-28T16:59:40;8.60;99.90
40177;DHT22;31511;46.176;9.874;2023-02-28T17:02:26;8.60;99.90
40177;DHT22;31511;46.176;9.874;2023-02-28T17:05:12;8.40;99.90
40177;DHT22;31511;46.176;9.874;2023-02-28T17:07:57;8.40;99.90
40177;DHT22;31511;46.176;9.874;2023-02-28T17:10:41;8.30;99.90
40177;DHT22;31511;46.176;9.874;2023-02-28T17:13:27;8.30;99.90
40177;DHT22;31511;46.176;9.874;2023-02-28T17:16:34;8.40;99.90
40177;DHT22;31511;46.176;9.874;2023-02-28T17:19:18;8.30;99.90
40177;DHT22;31511;46.176;9.874;2023-02-28T17:22:03;8.20;99.90
40177;DHT22;31511;46.176;9.874;2023-02-28T17:24:47;8.10;99.90
40177;DHT22;31511;46.176;9.874;2023-02-28T17:27:31;8.00;99.90
40177;DHT22;31511;46.176;9.874;2023-02-28T17:30:21;7.90;99.90
40177;DHT22;31511;46.176;9.874;2023-02-28T17:33:06;7.90;99.90
40177;DHT22;31511;46.176;9.874;2023-02-28T17:35:51;7.80;99.90
40177;DHT22;31511;46.176;9.874;2023-02-28T17:38:35;7.80;99.90
40177;DHT22;31511;46.176;9.874;2023-02-28T17:41:21;7.80;99.90
40177;DHT22;31511;46.176;9.874;2023-02-28T17:44:06;7.90;99.90
40177;DHT22;31511;46.176;9.874;2023-02-28T17:46:51;7.80;99.90
40177;DHT22;31511;46.176;9.874;2023-02-28T17:49:36;7.60;99.90
40177;DHT22;31511;46.176;9.874;2023-02-28T17:52:21;7.50;99.90
40177;DHT22;31511;46.176;9.874;2023-02-28T17:55:08;7.50;99.90
40177;DHT22;31511;46.176;9.874;2023-02-28T17:57:54;7.40;99.90
40177;DHT22;31511;46.176;9.874;2023-02-28T18:00:38;7.40;99.90
40177;DHT22;31511;46.176;9.874;2023-02-28T18:03:24;7.40;99.90
40177;DHT22;31511;46.176;9.874;2023-02-28T18:06:25;7.40;99.90
40177;DHT22;31511;46.176;9.874;2023-02-28T18:09:21;7.40;99.90
40177;DHT22;31511;46.176;9.874;2023-02-28T18:12:06;7.50;99.90
40177;DHT22;31511;46.176;9.874;2023-02-28T18:14:50;7.40;99.90
40177;DHT22;31511;46.176;9.874;2023-02-28T18:17:35;7.40;99.90
40177;DHT22;31511;46.176;9.874;2023-02-28T18:20:20;7.30;99.90
40177;DHT22;31511;46.176;9.874;2023-02-28T18:23:06;7.10;99.90
40177;DHT22;31511;46.176;9.874;2023-02-28T18:25:50;7.20;99.90
40177;DHT22;31511;46.176;9.874;2023-02-28T18:28:35;7.20;99.90
40177;DHT22;31511;46.176;9.874;2023-02-28T18:31:20;7.20;99.90
40177;DHT22;31511;46.176;9.874;2023-02-28T18:34:05;7.10;99.90
40177;DHT22;31511;46.176;9.874;2023-02-28T18:36:50;7.10;99.90
40177;DHT22;31511;46.176;9.874;2023-02-28T18:39:36;6.90;99.90
40177;DHT22;31511;46.176;9.874;2023-02-28T18:42:20;6.80;99.90
40177;DHT22;31511;46.176;9.874;2023-02-28T18:45:05;6.90;99.90
40177;DHT22;31511;46.176;9.874;2023-02-28T18:47:49;6.70;99.90
40177;DHT22;31511;46.176;9.874;2023-02-28T18:50:35;6.70;99.90
40177;DHT22;31511;46.176;9.874;2023-02-28T18:53:20;6.70;99.90
40177;DHT22;31511;46.176;9.874;2023-02-28T18:56:04;6.70;99.90
40177;DHT22;31511;46.176;9.874;2023-02-28T18:58:49;6.60;99.90
40177;DHT22;31511;46.176;9.874;2023-02-28T19:01:34;6.60;99.90
40177;DHT22;31511;46.176;9.874;2023-02-28T19:04:19;6.60;99.90
40177;DHT22;31511;46.176;9.874;2023-02-28T19:07:04;6.60;99.90
40177;DHT22;31511;46.176;9.874;2023-02-28T19:09:48;6.60;99.90
40177;DHT22;31511;46.176;9.874;2023-02-28T19:12:33;6.50;99.90
40177;DHT22;31511;46.176;9.874;2023-02-28T19:15:18;6.50;99.90
40177;DHT22;31511;46.176;9.874;2023-02-28T19:18:03;6.50;99.90
40177;DHT22;31511;46.176;9.874;2023-02-28T19:20:48;6.40;99.90
40177;DHT22;31511;46.176;9.874;2023-02-28T19:23:32;6.40;99.90
40177;DHT22;31511;46.176;9.874;2023-02-28T19:26:18;6.20;99.90
40177;DHT22;31511;46.176;9.874;2023-02-28T19:29:03;6.20;99.90
40177;DHT22;31511;46.176;9.874;2023-02-28T19:31:48;6.20;99.90
40177;DHT22;31511;46.176;9.874;2023-02-28T19:34:32;6.10;99.90
40177;DHT22;31511;46.176;9.874;2023-02-28T19:37:16;6.00;99.90
40177;DHT22;31511;46.176;9.874;2023-02-28T19:40:00;6.10;99.90
40177;DHT22;31511;46.176;9.874;2023-02-28T19:42:45;6.20;99.90
40177;DHT22;31511;46.176;9.874;2023-02-28T19:45:31;6.00;99.90
40177;DHT22;31511;46.176;9.874;2023-02-28T19:48:16;5.90;99.90
40177;DHT22;31511;46.176;9.874;2023-02-28T19:51:02;5.90;99.90
40177;DHT22;31511;46.176;9.874;2023-02-28T19:53:47;5.90;99.90
40177;DHT22;31511;46.176;9.874;2023-02-28T19:56:31;5.80;99.90
40177;DHT22;31511;46.176;9.874;2023-02-28T19:59:15;5.90;99.90
40177;DHT22;31511;46.176;9.874;2023-02-28T20:02:00;5.70;99.90
40177;DHT22;31511;46.176;9.874;2023-02-28T20:04:48;5.80;99.90
40177;DHT22;31511;46.176;9.874;2023-02-28T20:07:33;5.80;99.90
40177;DHT22;31511;46.176;9.874;2023-02-28T20:10:16;5.70;99.90
40177;DHT22;31511;46.176;9.874;2023-02-28T20:13:01;5.90;99.90
40177;DHT22;31511;46.176;9.874;2023-02-28T20:15:45;5.70;99.90
40177;DHT22;31511;46.176;9.874;2023-02-28T20:18:29;5.60;99.90
40177;DHT22;31511;46.176;9.874;2023-02-28T20:21:14;5.50;99.90
40177;DHT22;31511;46.176;9.874;2023-02-28T20:23:59;5.70;99.90
40177;DHT22;31511;46.176;9.874;2023-02-28T20:26:43;5.70;99.90
40177;DHT22;31511;46.176;9.874;2023-02-28T20:29:29;5.70;99.90
40177;DHT22;31511;46.176;9.874;2023-02-28T20:32:14;5.50;99.90
40177;DHT22;31511;46.176;9.874;2023-02-28T20:34:59;5.50;99.90
40177;DHT22;31511;46.176;9.874;2023-02-28T20:37:43;5.50;99.90
40177;DHT22;31511;46.176;9.874;2023-02-28T20:40:29;5.60;99.90
40177;DHT22;31511;46.176;9.874;2023-02-28T20:43:15;5.50;99.90
40177;DHT22;31511;46.176;9.874;2023-02-28T20:46:00;5.50;99.90
40177;DHT22;31511;46.176;9.874;2023-02-28T20:48:45;5.40;99.90
40177;DHT22;31511;46.176;9.874;2023-02-28T20:51:29;5.20;99.90
40177;DHT22;31511;46.176;9.874;2023-02-28T20:54:14;5.20;99.90
40177;DHT22;31511;46.176;9.874;2023-02-28T20:56:59;5.20;99.90
40177;DHT22;31511;46.176;9.874;2023-02-28T20:59:43;5.20;99.90
40177;DHT22;31511;46.176;9.874;2023-02-28T21:02:29;5.20;99.90
40177;DHT22;31511;46.176;9.874;2023-02-28T21:05:14;5.20;99.90
40177;DHT22;31511;46.176;9.874;2023-02-28T21:08:00;5.20;99.90
40177;DHT22;31511;46.176;9.874;2023-02-28T21:10:45;5.10;99.90
40177;DHT22;31511;46.176;9.874;2023-02-28T21:13:29;5.00;99.90
40177;DHT22;31511;46.176;9.874;2023-02-28T21:16:14;5.00;99.90
40177;DHT22;31511;46.176;9.874;2023-02-28T21:19:00;5.00;99.90
40177;DHT22;31511;46.176;9.874;2023-02-28T21:21:47;5.00;99.90
40177;DHT22;31511;46.176;9.874;2023-02-28T21:24:31;5.00;99.90
40177;DHT22;31511;46.176;9.874;2023-02-28T21:27:15;5.10;99.90
40177;DHT22;31511;46.176;9.874;2023-02-28T21:30:00;5.00;99.90
40177;DHT22;31511;46.176;9.874;2023-02-28T21:32:44;5.00;99.90
40177;DHT22;31511;46.176;9.874;2023-02-28T21:35:29;4.90;99.90
40177;DHT22;31511;46.176;9.874;2023-02-28T21:38:13;4.80;99.90
40177;DHT22;31511;46.176;9.874;2023-02-28T21:41:15;4.80;99.90
40177;DHT22;31511;46.176;9.874;2023-02-28T21:44:00;4.80;99.90
40177;DHT22;31511;46.176;9.874;2023-02-28T21:46:45;5.00;99.90
40177;DHT22;31511;46.176;9.874;2023-02-28T21:49:29;4.70;99.90
40177;DHT22;31511;46.176;9.874;2023-02-28T21:52:14;4.70;99.90
40177;DHT22;31511;46.176;9.874;2023-02-28T21:54:58;4.80;99.90
40177;DHT22;31511;46.176;9.874;2023-02-28T21:57:42;4.70;99.90
40177;DHT22;31511;46.176;9.874;2023-02-28T22:00:26;4.70;99.90
40177;DHT22;31511;46.176;9.874;2023-02-28T22:03:11;4.70;99.90
40177;DHT22;31511;46.176;9.874;2023-02-28T22:05:56;4.60;99.90
40177;DHT22;31511;46.176;9.874;2023-02-28T22:08:41;4.70;99.90
40177;DHT22;31511;46.176;9.874;2023-02-28T22:11:26;4.70;99.90
40177;DHT22;31511;46.176;9.874;2023-02-28T22:14:12;4.60;99.90
40177;DHT22;31511;46.176;9.874;2023-02-28T22:16:57;4.50;99.90
40177;DHT22;31511;46.176;9.874;2023-02-28T22:19:42;4.50;99.90
40177;DHT22;31511;46.176;9.874;2023-02-28T22:22:27;4.70;99.90
40177;DHT22;31511;46.176;9.874;2023-02-28T22:25:13;4.60;99.90
40177;DHT22;31511;46.176;9.874;2023-02-28T22:27:58;4.50;99.90
40177;DHT22;31511;46.176;9.874;2023-02-28T22:30:42;4.40;99.90